Cherry Lane, North Carolina
Current Conditions -  °F | °C
As of 11:15 AM on Tuesday 21 Oct 2014 (Local Time) from KUKF Reporting Station
Broken Clouds Broken Clouds  
Wind Chill: 18°   Ceiling: 6000
Heat Index: 18°   Visibility: 10mi
Dew Point: 10°   Wind: 12mph
Humidity: 59%   Direction: 230°SW
Pressure: 30"   Gusts: NA
Location:  36.4437°N, 81.0178°W
Report Text: KUKF 211515Z AUTO 23010KT 10SM BKN060 18/10 A3000 RMK AO2
Loading
Personal Weather Stations






























Interactive Weather Map
Tropical Storm Tracking
New forecast layout! Learn more

10-Day Weather Forecast

Advertisements
Track Severe Weather on mobile